Hollsopple, Pennsylvania
Current Conditions -  °F | °C
As of 1:16 AM on Tuesday 21 Oct 2014 (Local Time) from KJST Reporting Station
Overcast Overcast  
Wind Chill: 47°   Ceiling: 3300
Heat Index: 49°   Visibility: 10mi
Dew Point: 41°   Wind: 6mph
Humidity: 74%   Direction: 200°SSW
Pressure: 29.86"   Gusts: NA
Location:  40.21°N, 78.93°W
Report Text: KJST 210516Z AUTO 20005KT 10SM FEW020 SCT026 OVC033 09/05 A2986 RMK AO2 T00940050
Loading
Personal Weather Stations






























Interactive Weather Map
Tropical Storm Tracking
New forecast layout! Learn more

10-Day Weather Forecast

Advertisements
Track Severe Weather on mobile